sensor_id;sensor_type;location;lat;lon;timestamp;P1;durP1;ratioP1;P2;durP2;ratioP2
14892;SDS011;7538;53.626;9.906;2022-12-18T00:02:22;25.43;;;15.60;;
14892;SDS011;7538;53.626;9.906;2022-12-18T00:04:49;23.27;;;15.33;;
14892;SDS011;7538;53.626;9.906;2022-12-18T00:07:15;22.10;;;14.40;;
14892;SDS011;7538;53.626;9.906;2022-12-18T00:09:42;21.17;;;14.03;;
14892;SDS011;7538;53.626;9.906;2022-12-18T00:12:09;19.90;;;13.97;;
14892;SDS011;7538;53.626;9.906;2022-12-18T00:14:36;23.67;;;13.67;;
14892;SDS011;7538;53.626;9.906;2022-12-18T00:17:04;24.03;;;14.50;;
14892;SDS011;7538;53.626;9.906;2022-12-18T00:19:31;20.23;;;12.80;;
14892;SDS011;7538;53.626;9.906;2022-12-18T00:21:57;22.30;;;14.20;;
14892;SDS011;7538;53.626;9.906;2022-12-18T00:24:24;22.13;;;12.53;;
14892;SDS011;7538;53.626;9.906;2022-12-18T00:26:51;20.80;;;13.43;;
14892;SDS011;7538;53.626;9.906;2022-12-18T00:29:18;21.10;;;13.27;;
14892;SDS011;7538;53.626;9.906;2022-12-18T00:31:45;23.50;;;14.57;;
14892;SDS011;7538;53.626;9.906;2022-12-18T00:34:13;21.03;;;12.87;;
14892;SDS011;7538;53.626;9.906;2022-12-18T00:36:40;16.73;;;12.50;;
14892;SDS011;7538;53.626;9.906;2022-12-18T00:39:07;19.77;;;12.57;;
14892;SDS011;7538;53.626;9.906;2022-12-18T00:41:34;20.57;;;12.40;;
14892;SDS011;7538;53.626;9.906;2022-12-18T00:44:18;22.23;;;12.50;;
14892;SDS011;7538;53.626;9.906;2022-12-18T00:46:45;19.00;;;12.67;;
14892;SDS011;7538;53.626;9.906;2022-12-18T00:49:15;18.47;;;11.87;;
14892;SDS011;7538;53.626;9.906;2022-12-18T00:51:43;20.90;;;12.07;;
14892;SDS011;7538;53.626;9.906;2022-12-18T00:54:10;19.30;;;11.63;;
14892;SDS011;7538;53.626;9.906;2022-12-18T00:56:37;19.83;;;12.20;;
14892;SDS011;7538;53.626;9.906;2022-12-18T00:59:04;16.63;;;11.90;;
14892;SDS011;7538;53.626;9.906;2022-12-18T01:01:30;21.03;;;12.27;;
14892;SDS011;7538;53.626;9.906;2022-12-18T01:03:59;16.20;;;11.57;;
14892;SDS011;7538;53.626;9.906;2022-12-18T01:06:27;23.30;;;13.07;;
14892;SDS011;7538;53.626;9.906;2022-12-18T01:08:55;18.97;;;12.07;;
14892;SDS011;7538;53.626;9.906;2022-12-18T01:11:21;21.50;;;12.57;;
14892;SDS011;7538;53.626;9.906;2022-12-18T01:13:49;22.13;;;13.03;;
14892;SDS011;7538;53.626;9.906;2022-12-18T01:16:17;16.90;;;11.50;;
14892;SDS011;7538;53.626;9.906;2022-12-18T01:18:44;20.00;;;12.83;;
14892;SDS011;7538;53.626;9.906;2022-12-18T01:21:12;21.43;;;13.20;;
14892;SDS011;7538;53.626;9.906;2022-12-18T01:23:44;23.80;;;13.13;;
14892;SDS011;7538;53.626;9.906;2022-12-18T01:26:12;21.00;;;12.37;;
14892;SDS011;7538;53.626;9.906;2022-12-18T01:28:40;20.80;;;13.07;;
14892;SDS011;7538;53.626;9.906;2022-12-18T01:31:10;20.17;;;12.60;;
14892;SDS011;7538;53.626;9.906;2022-12-18T01:33:38;19.00;;;11.67;;
14892;SDS011;7538;53.626;9.906;2022-12-18T01:36:05;18.40;;;12.00;;
14892;SDS011;7538;53.626;9.906;2022-12-18T01:38:32;20.90;;;13.00;;
14892;SDS011;7538;53.626;9.906;2022-12-18T01:41:00;20.17;;;12.40;;
14892;SDS011;7538;53.626;9.906;2022-12-18T01:46:14;20.47;;;13.00;;
14892;SDS011;7538;53.626;9.906;2022-12-18T01:48:41;18.97;;;12.67;;
14892;SDS011;7538;53.626;9.906;2022-12-18T01:51:09;16.57;;;12.00;;
14892;SDS011;7538;53.626;9.906;2022-12-18T01:53:37;17.03;;;12.00;;
14892;SDS011;7538;53.626;9.906;2022-12-18T01:56:08;21.57;;;11.70;;
14892;SDS011;7538;53.626;9.906;2022-12-18T01:58:40;19.40;;;11.67;;
14892;SDS011;7538;53.626;9.906;2022-12-18T02:01:12;17.03;;;11.33;;
14892;SDS011;7538;53.626;9.906;2022-12-18T02:03:40;23.33;;;12.27;;
14892;SDS011;7538;53.626;9.906;2022-12-18T02:06:09;18.40;;;11.20;;
14892;SDS011;7538;53.626;9.906;2022-12-18T02:08:42;19.50;;;11.27;;
14892;SDS011;7538;53.626;9.906;2022-12-18T02:11:17;17.83;;;10.93;;
14892;SDS011;7538;53.626;9.906;2022-12-18T02:13:53;15.63;;;10.10;;
14892;SDS011;7538;53.626;9.906;2022-12-18T02:16:25;18.40;;;11.00;;
14892;SDS011;7538;53.626;9.906;2022-12-18T02:18:59;17.83;;;11.97;;
14892;SDS011;7538;53.626;9.906;2022-12-18T02:21:32;16.83;;;11.83;;
14892;SDS011;7538;53.626;9.906;2022-12-18T02:24:11;14.90;;;10.90;;
14892;SDS011;7538;53.626;9.906;2022-12-18T02:26:52;16.50;;;11.13;;
14892;SDS011;7538;53.626;9.906;2022-12-18T02:29:22;18.17;;;10.23;;
14892;SDS011;7538;53.626;9.906;2022-12-18T02:31:53;17.53;;;10.93;;
14892;SDS011;7538;53.626;9.906;2022-12-18T02:34:22;17.63;;;11.87;;
14892;SDS011;7538;53.626;9.906;2022-12-18T02:36:52;18.23;;;11.50;;
14892;SDS011;7538;53.626;9.906;2022-12-18T02:39:21;15.70;;;9.77;;
14892;SDS011;7538;53.626;9.906;2022-12-18T02:41:52;15.70;;;10.40;;
14892;SDS011;7538;53.626;9.906;2022-12-18T02:44:19;17.57;;;12.13;;
14892;SDS011;7538;53.626;9.906;2022-12-18T02:46:46;18.47;;;10.57;;
14892;SDS011;7538;53.626;9.906;2022-12-18T02:49:21;18.17;;;11.20;;
14892;SDS011;7538;53.626;9.906;2022-12-18T02:51:55;18.50;;;11.43;;
14892;SDS011;7538;53.626;9.906;2022-12-18T02:54:36;15.83;;;11.30;;
14892;SDS011;7538;53.626;9.906;2022-12-18T02:57:23;20.40;;;13.07;;
14892;SDS011;7538;53.626;9.906;2022-12-18T02:59:58;16.80;;;11.37;;
14892;SDS011;7538;53.626;9.906;2022-12-18T03:02:29;18.73;;;10.90;;
14892;SDS011;7538;53.626;9.906;2022-12-18T03:05:04;15.83;;;10.77;;
14892;SDS011;7538;53.626;9.906;2022-12-18T03:07:38;18.17;;;11.47;;
14892;SDS011;7538;53.626;9.906;2022-12-18T03:10:09;15.37;;;10.30;;
14892;SDS011;7538;53.626;9.906;2022-12-18T03:12:42;16.23;;;10.67;;
14892;SDS011;7538;53.626;9.906;2022-12-18T03:15:14;18.20;;;11.93;;
14892;SDS011;7538;53.626;9.906;2022-12-18T03:17:46;17.07;;;10.83;;
14892;SDS011;7538;53.626;9.906;2022-12-18T03:20:19;17.00;;;10.80;;
14892;SDS011;7538;53.626;9.906;2022-12-18T03:22:49;18.00;;;11.27;;
14892;SDS011;7538;53.626;9.906;2022-12-18T03:25:19;18.03;;;11.67;;
14892;SDS011;7538;53.626;9.906;2022-12-18T03:27:49;17.37;;;10.97;;
14892;SDS011;7538;53.626;9.906;2022-12-18T03:30:21;15.40;;;10.53;;
14892;SDS011;7538;53.626;9.906;2022-12-18T03:32:48;20.80;;;10.70;;
14892;SDS011;7538;53.626;9.906;2022-12-18T03:35:21;16.63;;;10.37;;
14892;SDS011;7538;53.626;9.906;2022-12-18T03:37:50;15.07;;;10.60;;
14892;SDS011;7538;53.626;9.906;2022-12-18T03:40:17;17.20;;;11.17;;
14892;SDS011;7538;53.626;9.906;2022-12-18T03:42:46;14.87;;;9.47;;
14892;SDS011;7538;53.626;9.906;2022-12-18T03:45:19;18.47;;;10.63;;
14892;SDS011;7538;53.626;9.906;2022-12-18T03:47:53;17.13;;;10.87;;
14892;SDS011;7538;53.626;9.906;2022-12-18T03:50:29;16.50;;;11.07;;
14892;SDS011;7538;53.626;9.906;2022-12-18T03:53:04;14.93;;;10.30;;
14892;SDS011;7538;53.626;9.906;2022-12-18T03:55:43;17.63;;;10.97;;
14892;SDS011;7538;53.626;9.906;2022-12-18T03:58:12;15.27;;;10.43;;
14892;SDS011;7538;53.626;9.906;2022-12-18T04:00:43;17.27;;;10.63;;
14892;SDS011;7538;53.626;9.906;2022-12-18T04:03:10;16.97;;;10.73;;
14892;SDS011;7538;53.626;9.906;2022-12-18T04:05:39;16.47;;;11.00;;
14892;SDS011;7538;53.626;9.906;2022-12-18T04:08:08;18.70;;;10.83;;
14892;SDS011;7538;53.626;9.906;2022-12-18T04:10:35;16.33;;;11.50;;
14892;SDS011;7538;53.626;9.906;2022-12-18T04:13:02;14.70;;;10.10;;
14892;SDS011;7538;53.626;9.906;2022-12-18T04:15:30;18.27;;;10.17;;
14892;SDS011;7538;53.626;9.906;2022-12-18T04:18:00;15.37;;;10.10;;
14892;SDS011;7538;53.626;9.906;2022-12-18T04:20:27;16.43;;;11.07;;
14892;SDS011;7538;53.626;9.906;2022-12-18T04:22:53;18.60;;;10.73;;
14892;SDS011;7538;53.626;9.906;2022-12-18T04:25:20;19.40;;;10.93;;
14892;SDS011;7538;53.626;9.906;2022-12-18T04:27:47;18.83;;;10.57;;
14892;SDS011;7538;53.626;9.906;2022-12-18T04:30:14;17.60;;;10.67;;
14892;SDS011;7538;53.626;9.906;2022-12-18T04:32:42;14.60;;;9.20;;
14892;SDS011;7538;53.626;9.906;2022-12-18T04:35:09;18.40;;;10.43;;
14892;SDS011;7538;53.626;9.906;2022-12-18T04:37:36;15.93;;;11.13;;
14892;SDS011;7538;53.626;9.906;2022-12-18T04:40:04;18.47;;;10.20;;
14892;SDS011;7538;53.626;9.906;2022-12-18T04:42:31;17.27;;;10.20;;
14892;SDS011;7538;53.626;9.906;2022-12-18T04:44:58;18.07;;;10.37;;
14892;SDS011;7538;53.626;9.906;2022-12-18T04:47:25;19.73;;;10.07;;
14892;SDS011;7538;53.626;9.906;2022-12-18T04:49:53;18.10;;;10.53;;
14892;SDS011;7538;53.626;9.906;2022-12-18T04:52:20;14.90;;;9.60;;
14892;SDS011;7538;53.626;9.906;2022-12-18T04:54:46;17.63;;;11.23;;
14892;SDS011;7538;53.626;9.906;2022-12-18T04:57:13;20.17;;;11.27;;
14892;SDS011;7538;53.626;9.906;2022-12-18T04:59:40;16.07;;;9.10;;
14892;SDS011;7538;53.626;9.906;2022-12-18T05:02:07;18.17;;;10.90;;
14892;SDS011;7538;53.626;9.906;2022-12-18T05:04:33;15.57;;;10.87;;
14892;SDS011;7538;53.626;9.906;2022-12-18T05:07:02;19.07;;;10.03;;
14892;SDS011;7538;53.626;9.906;2022-12-18T05:09:29;16.97;;;10.33;;
14892;SDS011;7538;53.626;9.906;2022-12-18T05:11:55;13.73;;;10.33;;
14892;SDS011;7538;53.626;9.906;2022-12-18T05:14:22;18.17;;;9.33;;
14892;SDS011;7538;53.626;9.906;2022-12-18T05:16:49;18.33;;;9.90;;
14892;SDS011;7538;53.626;9.906;2022-12-18T05:19:16;15.07;;;9.23;;
14892;SDS011;7538;53.626;9.906;2022-12-18T05:21:43;16.30;;;9.67;;
14892;SDS011;7538;53.626;9.906;2022-12-18T05:24:11;17.10;;;10.80;;
14892;SDS011;7538;53.626;9.906;2022-12-18T05:26:38;13.27;;;8.53;;
14892;SDS011;7538;53.626;9.906;2022-12-18T05:29:04;15.33;;;10.13;;
14892;SDS011;7538;53.626;9.906;2022-12-18T05:31:31;12.40;;;8.07;;
14892;SDS011;7538;53.626;9.906;2022-12-18T05:33:58;14.50;;;9.47;;
14892;SDS011;7538;53.626;9.906;2022-12-18T05:36:25;16.53;;;10.07;;
14892;SDS011;7538;53.626;9.906;2022-12-18T05:38:51;15.33;;;10.00;;
14892;SDS011;7538;53.626;9.906;2022-12-18T05:41:20;16.33;;;10.20;;
14892;SDS011;7538;53.626;9.906;2022-12-18T05:43:46;16.10;;;10.33;;
14892;SDS011;7538;53.626;9.906;2022-12-18T05:46:14;15.37;;;9.93;;
14892;SDS011;7538;53.626;9.906;2022-12-18T05:48:42;13.87;;;9.67;;
14892;SDS011;7538;53.626;9.906;2022-12-18T05:51:11;17.57;;;9.83;;
14892;SDS011;7538;53.626;9.906;2022-12-18T05:53:39;14.83;;;9.40;;
14892;SDS011;7538;53.626;9.906;2022-12-18T05:56:07;16.43;;;9.67;;
14892;SDS011;7538;53.626;9.906;2022-12-18T05:58:36;13.77;;;9.20;;
14892;SDS011;7538;53.626;9.906;2022-12-18T06:01:07;17.00;;;10.23;;
14892;SDS011;7538;53.626;9.906;2022-12-18T06:03:35;12.17;;;9.60;;
14892;SDS011;7538;53.626;9.906;2022-12-18T06:06:02;16.33;;;10.53;;
14892;SDS011;7538;53.626;9.906;2022-12-18T06:08:29;16.87;;;10.70;;
14892;SDS011;7538;53.626;9.906;2022-12-18T06:10:56;16.17;;;10.80;;
14892;SDS011;7538;53.626;9.906;2022-12-18T06:13:23;17.07;;;11.10;;
14892;SDS011;7538;53.626;9.906;2022-12-18T06:15:51;14.73;;;10.40;;
14892;SDS011;7538;53.626;9.906;2022-12-18T06:18:18;14.40;;;10.03;;
14892;SDS011;7538;53.626;9.906;2022-12-18T06:20:44;15.43;;;10.70;;
14892;SDS011;7538;53.626;9.906;2022-12-18T06:23:11;15.73;;;11.07;;
14892;SDS011;7538;53.626;9.906;2022-12-18T06:25:38;15.57;;;10.97;;
14892;SDS011;7538;53.626;9.906;2022-12-18T06:28:05;21.13;;;12.03;;
14892;SDS011;7538;53.626;9.906;2022-12-18T06:30:32;17.77;;;11.10;;
14892;SDS011;7538;53.626;9.906;2022-12-18T06:33:00;15.27;;;10.33;;
14892;SDS011;7538;53.626;9.906;2022-12-18T06:35:27;12.47;;;10.20;;
14892;SDS011;7538;53.626;9.906;2022-12-18T06:37:54;16.33;;;10.67;;
14892;SDS011;7538;53.626;9.906;2022-12-18T06:40:20;15.50;;;11.20;;
14892;SDS011;7538;53.626;9.906;2022-12-18T06:42:47;18.80;;;11.47;;
14892;SDS011;7538;53.626;9.906;2022-12-18T06:45:15;14.37;;;10.87;;
14892;SDS011;7538;53.626;9.906;2022-12-18T06:47:42;16.73;;;11.77;;
14892;SDS011;7538;53.626;9.906;2022-12-18T06:50:10;17.17;;;11.53;;
14892;SDS011;7538;53.626;9.906;2022-12-18T06:52:38;16.77;;;10.87;;
14892;SDS011;7538;53.626;9.906;2022-12-18T06:55:05;15.63;;;10.57;;
14892;SDS011;7538;53.626;9.906;2022-12-18T06:57:33;17.93;;;12.23;;
14892;SDS011;7538;53.626;9.906;2022-12-18T07:00:00;17.03;;;11.97;;
14892;SDS011;7538;53.626;9.906;2022-12-18T07:02:27;13.70;;;11.20;;
14892;SDS011;7538;53.626;9.906;2022-12-18T07:04:54;15.50;;;11.63;;
14892;SDS011;7538;53.626;9.906;2022-12-18T07:07:22;15.80;;;11.30;;
14892;SDS011;7538;53.626;9.906;2022-12-18T07:09:49;14.60;;;10.27;;
14892;SDS011;7538;53.626;9.906;2022-12-18T07:12:16;16.07;;;10.87;;
14892;SDS011;7538;53.626;9.906;2022-12-18T07:14:44;13.27;;;10.10;;
14892;SDS011;7538;53.626;9.906;2022-12-18T07:17:10;17.57;;;10.03;;
14892;SDS011;7538;53.626;9.906;2022-12-18T07:19:37;15.47;;;10.33;;
14892;SDS011;7538;53.626;9.906;2022-12-18T07:22:04;14.43;;;10.03;;
14892;SDS011;7538;53.626;9.906;2022-12-18T07:24:33;15.70;;;10.33;;
14892;SDS011;7538;53.626;9.906;2022-12-18T07:27:00;14.60;;;9.63;;
14892;SDS011;7538;53.626;9.906;2022-12-18T07:29:27;15.60;;;9.37;;
14892;SDS011;7538;53.626;9.906;2022-12-18T07:31:54;13.53;;;9.87;;
14892;SDS011;7538;53.626;9.906;2022-12-18T07:34:21;13.73;;;9.77;;
14892;SDS011;7538;53.626;9.906;2022-12-18T07:36:48;15.67;;;9.80;;
14892;SDS011;7538;53.626;9.906;2022-12-18T07:39:15;16.10;;;11.23;;
14892;SDS011;7538;53.626;9.906;2022-12-18T07:41:43;16.00;;;10.53;;
14892;SDS011;7538;53.626;9.906;2022-12-18T07:44:30;14.80;;;10.40;;
14892;SDS011;7538;53.626;9.906;2022-12-18T07:46:57;17.57;;;9.47;;
14892;SDS011;7538;53.626;9.906;2022-12-18T07:49:24;15.87;;;10.27;;
14892;SDS011;7538;53.626;9.906;2022-12-18T07:51:51;13.83;;;9.30;;
14892;SDS011;7538;53.626;9.906;2022-12-18T07:54:20;15.93;;;9.83;;
14892;SDS011;7538;53.626;9.906;2022-12-18T07:56:48;15.57;;;9.90;;
14892;SDS011;7538;53.626;9.906;2022-12-18T07:59:15;14.80;;;9.23;;
14892;SDS011;7538;53.626;9.906;2022-12-18T08:01:42;15.80;;;10.30;;
14892;SDS011;7538;53.626;9.906;2022-12-18T08:04:08;16.20;;;9.53;;
14892;SDS011;7538;53.626;9.906;2022-12-18T08:06:35;16.90;;;10.43;;
14892;SDS011;7538;53.626;9.906;2022-12-18T08:09:02;18.03;;;9.80;;
14892;SDS011;7538;53.626;9.906;2022-12-18T08:11:29;14.70;;;9.43;;
14892;SDS011;7538;53.626;9.906;2022-12-18T08:13:57;14.27;;;10.23;;
14892;SDS011;7538;53.626;9.906;2022-12-18T08:16:24;15.23;;;9.90;;
14892;SDS011;7538;53.626;9.906;2022-12-18T08:18:51;14.20;;;9.87;;
14892;SDS011;7538;53.626;9.906;2022-12-18T08:21:21;16.63;;;11.47;;
14892;SDS011;7538;53.626;9.906;2022-12-18T08:23:49;13.57;;;10.20;;
14892;SDS011;7538;53.626;9.906;2022-12-18T08:26:17;13.50;;;9.63;;
14892;SDS011;7538;53.626;9.906;2022-12-18T08:28:44;16.63;;;10.57;;
14892;SDS011;7538;53.626;9.906;2022-12-18T08:31:12;14.23;;;10.23;;
14892;SDS011;7538;53.626;9.906;2022-12-18T08:33:39;16.23;;;9.63;;
14892;SDS011;7538;53.626;9.906;2022-12-18T08:36:07;16.40;;;9.70;;
14892;SDS011;7538;53.626;9.906;2022-12-18T08:38:35;15.73;;;9.20;;
14892;SDS011;7538;53.626;9.906;2022-12-18T08:41:02;14.73;;;8.97;;
14892;SDS011;7538;53.626;9.906;2022-12-18T08:43:31;14.47;;;9.47;;
14892;SDS011;7538;53.626;9.906;2022-12-18T08:46:17;15.07;;;8.97;;
14892;SDS011;7538;53.626;9.906;2022-12-18T08:48:44;13.53;;;9.47;;
14892;SDS011;7538;53.626;9.906;2022-12-18T08:51:11;12.63;;;9.40;;
14892;SDS011;7538;53.626;9.906;2022-12-18T08:53:38;12.13;;;9.03;;
14892;SDS011;7538;53.626;9.906;2022-12-18T08:56:05;13.20;;;9.60;;
14892;SDS011;7538;53.626;9.906;2022-12-18T08:58:33;14.70;;;8.37;;
14892;SDS011;7538;53.626;9.906;2022-12-18T09:01:00;11.63;;;8.10;;
14892;SDS011;7538;53.626;9.906;2022-12-18T09:03:29;13.63;;;9.23;;
14892;SDS011;7538;53.626;9.906;2022-12-18T09:05:56;14.37;;;9.43;;
14892;SDS011;7538;53.626;9.906;2022-12-18T09:08:23;16.43;;;9.63;;
14892;SDS011;7538;53.626;9.906;2022-12-18T09:10:50;14.47;;;9.67;;
14892;SDS011;7538;53.626;9.906;2022-12-18T09:13:17;12.33;;;10.30;;
14892;SDS011;7538;53.626;9.906;2022-12-18T09:15:45;13.23;;;10.03;;
14892;SDS011;7538;53.626;9.906;2022-12-18T09:18:13;12.77;;;9.57;;
14892;SDS011;7538;53.626;9.906;2022-12-18T09:20:42;14.53;;;9.77;;
14892;SDS011;7538;53.626;9.906;2022-12-18T09:23:09;14.73;;;9.47;;
14892;SDS011;7538;53.626;9.906;2022-12-18T09:25:36;15.20;;;9.93;;
14892;SDS011;7538;53.626;9.906;2022-12-18T09:28:04;14.63;;;9.07;;
14892;SDS011;7538;53.626;9.906;2022-12-18T09:30:37;12.07;;;9.37;;
14892;SDS011;7538;53.626;9.906;2022-12-18T09:33:04;15.07;;;9.33;;
14892;SDS011;7538;53.626;9.906;2022-12-18T09:35:31;11.30;;;8.37;;
14892;SDS011;7538;53.626;9.906;2022-12-18T09:37:59;13.27;;;9.27;;
14892;SDS011;7538;53.626;9.906;2022-12-18T09:40:34;12.60;;;8.47;;
14892;SDS011;7538;53.626;9.906;2022-12-18T09:43:06;12.13;;;8.53;;
14892;SDS011;7538;53.626;9.906;2022-12-18T09:45:38;13.43;;;9.37;;
14892;SDS011;7538;53.626;9.906;2022-12-18T09:48:08;11.03;;;7.83;;
14892;SDS011;7538;53.626;9.906;2022-12-18T09:50:40;10.63;;;8.50;;
14892;SDS011;7538;53.626;9.906;2022-12-18T09:53:09;11.17;;;8.83;;
14892;SDS011;7538;53.626;9.906;2022-12-18T09:55:42;12.07;;;8.87;;
14892;SDS011;7538;53.626;9.906;2022-12-18T09:58:14;11.57;;;7.60;;
14892;SDS011;7538;53.626;9.906;2022-12-18T10:00:45;10.57;;;7.90;;
14892;SDS011;7538;53.626;9.906;2022-12-18T10:03:13;13.13;;;8.50;;
14892;SDS011;7538;53.626;9.906;2022-12-18T10:05:42;10.90;;;8.03;;
14892;SDS011;7538;53.626;9.906;2022-12-18T10:08:17;10.20;;;7.87;;
14892;SDS011;7538;53.626;9.906;2022-12-18T10:10:49;12.40;;;8.43;;
14892;SDS011;7538;53.626;9.906;2022-12-18T10:13:21;9.97;;;7.63;;
14892;SDS011;7538;53.626;9.906;2022-12-18T10:15:54;10.43;;;7.73;;
14892;SDS011;7538;53.626;9.906;2022-12-18T10:18:40;10.93;;;8.40;;
14892;SDS011;7538;53.626;9.906;2022-12-18T10:21:20;11.37;;;8.37;;
14892;SDS011;7538;53.626;9.906;2022-12-18T10:23:54;11.20;;;8.27;;
14892;SDS011;7538;53.626;9.906;2022-12-18T10:26:27;13.30;;;9.50;;
14892;SDS011;7538;53.626;9.906;2022-12-18T10:28:53;13.57;;;8.80;;
14892;SDS011;7538;53.626;9.906;2022-12-18T10:31:23;11.97;;;8.63;;
14892;SDS011;7538;53.626;9.906;2022-12-18T10:33:50;13.00;;;8.77;;
14892;SDS011;7538;53.626;9.906;2022-12-18T10:36:17;14.50;;;9.00;;
14892;SDS011;7538;53.626;9.906;2022-12-18T10:38:44;10.53;;;8.10;;
14892;SDS011;7538;53.626;9.906;2022-12-18T10:41:24;10.83;;;8.73;;
14892;SDS011;7538;53.626;9.906;2022-12-18T10:44:10;14.37;;;8.80;;
14892;SDS011;7538;53.626;9.906;2022-12-18T10:46:38;12.03;;;8.30;;
14892;SDS011;7538;53.626;9.906;2022-12-18T10:49:05;12.43;;;8.43;;
14892;SDS011;7538;53.626;9.906;2022-12-18T10:51:45;14.13;;;8.60;;
14892;SDS011;7538;53.626;9.906;2022-12-18T10:54:13;11.50;;;8.00;;
14892;SDS011;7538;53.626;9.906;2022-12-18T10:56:44;13.53;;;9.23;;
14892;SDS011;7538;53.626;9.906;2022-12-18T10:59:12;11.43;;;8.03;;
14892;SDS011;7538;53.626;9.906;2022-12-18T11:01:48;12.97;;;8.77;;
14892;SDS011;7538;53.626;9.906;2022-12-18T11:04:18;11.30;;;8.07;;
14892;SDS011;7538;53.626;9.906;2022-12-18T11:06:57;11.00;;;8.13;;
14892;SDS011;7538;53.626;9.906;2022-12-18T11:09:25;12.33;;;9.27;;
14892;SDS011;7538;53.626;9.906;2022-12-18T11:11:55;14.67;;;9.20;;
14892;SDS011;7538;53.626;9.906;2022-12-18T11:14:25;13.53;;;9.33;;
14892;SDS011;7538;53.626;9.906;2022-12-18T11:16:54;14.37;;;8.63;;
14892;SDS011;7538;53.626;9.906;2022-12-18T11:19:32;12.47;;;8.10;;
14892;SDS011;7538;53.626;9.906;2022-12-18T11:22:01;12.03;;;8.33;;
14892;SDS011;7538;53.626;9.906;2022-12-18T11:24:43;12.90;;;8.80;;
14892;SDS011;7538;53.626;9.906;2022-12-18T11:27:21;13.33;;;9.53;;
14892;SDS011;7538;53.626;9.906;2022-12-18T11:29:48;12.00;;;8.50;;
14892;SDS011;7538;53.626;9.906;2022-12-18T11:35:04;11.27;;;8.87;;
14892;SDS011;7538;53.626;9.906;2022-12-18T11:37:40;12.27;;;8.60;;
14892;SDS011;7538;53.626;9.906;2022-12-18T11:40:11;9.83;;;8.00;;
14892;SDS011;7538;53.626;9.906;2022-12-18T11:42:46;13.27;;;8.73;;
14892;SDS011;7538;53.626;9.906;2022-12-18T11:45:25;17.17;;;10.10;;
14892;SDS011;7538;53.626;9.906;2022-12-18T11:47:56;13.90;;;9.20;;
14892;SDS011;7538;53.626;9.906;2022-12-18T11:50:28;11.23;;;8.03;;
14892;SDS011;7538;53.626;9.906;2022-12-18T11:52:59;11.97;;;8.47;;
14892;SDS011;7538;53.626;9.906;2022-12-18T11:55:30;12.57;;;9.03;;
14892;SDS011;7538;53.626;9.906;2022-12-18T11:58:07;12.90;;;8.77;;
14892;SDS011;7538;53.626;9.906;2022-12-18T12:00:44;12.43;;;8.37;;
14892;SDS011;7538;53.626;9.906;2022-12-18T12:06:13;13.57;;;9.07;;
14892;SDS011;7538;53.626;9.906;2022-12-18T12:08:49;12.73;;;8.50;;
14892;SDS011;7538;53.626;9.906;2022-12-18T12:11:28;12.70;;;8.37;;
14892;SDS011;7538;53.626;9.906;2022-12-18T12:14:07;12.07;;;8.40;;
14892;SDS011;7538;53.626;9.906;2022-12-18T12:16:46;12.70;;;8.50;;
14892;SDS011;7538;53.626;9.906;2022-12-18T12:19:26;12.80;;;8.60;;
14892;SDS011;7538;53.626;9.906;2022-12-18T12:22:03;11.73;;;8.90;;
14892;SDS011;7538;53.626;9.906;2022-12-18T12:24:38;14.17;;;9.23;;
14892;SDS011;7538;53.626;9.906;2022-12-18T12:27:15;15.60;;;9.50;;
14892;SDS011;7538;53.626;9.906;2022-12-18T12:29:50;13.70;;;9.67;;
14892;SDS011;7538;53.626;9.906;2022-12-18T12:32:32;14.67;;;9.90;;
14892;SDS011;7538;53.626;9.906;2022-12-18T12:35:18;17.67;;;10.67;;
14892;SDS011;7538;53.626;9.906;2022-12-18T12:37:56;18.23;;;11.17;;
14892;SDS011;7538;53.626;9.906;2022-12-18T12:40:31;15.57;;;10.60;;
14892;SDS011;7538;53.626;9.906;2022-12-18T12:43:02;15.97;;;10.93;;
14892;SDS011;7538;53.626;9.906;2022-12-18T12:45:41;18.37;;;11.77;;
14892;SDS011;7538;53.626;9.906;2022-12-18T12:48:15;17.43;;;10.70;;
14892;SDS011;7538;53.626;9.906;2022-12-18T12:50:45;14.63;;;10.93;;
14892;SDS011;7538;53.626;9.906;2022-12-18T12:53:15;18.13;;;11.77;;
14892;SDS011;7538;53.626;9.906;2022-12-18T12:55:48;16.33;;;10.83;;
14892;SDS011;7538;53.626;9.906;2022-12-18T12:58:17;16.57;;;10.33;;
14892;SDS011;7538;53.626;9.906;2022-12-18T13:00:53;15.30;;;10.90;;
14892;SDS011;7538;53.626;9.906;2022-12-18T13:03:30;15.97;;;10.53;;
14892;SDS011;7538;53.626;9.906;2022-12-18T13:06:08;14.90;;;9.57;;
14892;SDS011;7538;53.626;9.906;2022-12-18T13:08:52;15.57;;;9.93;;
14892;SDS011;7538;53.626;9.906;2022-12-18T13:14:31;15.27;;;10.27;;
14892;SDS011;7538;53.626;9.906;2022-12-18T13:20:04;16.93;;;10.13;;
14892;SDS011;7538;53.626;9.906;2022-12-18T13:22:40;15.83;;;10.60;;
14892;SDS011;7538;53.626;9.906;2022-12-18T13:25:29;13.87;;;9.43;;
14892;SDS011;7538;53.626;9.906;2022-12-18T13:28:06;16.70;;;10.43;;
14892;SDS011;7538;53.626;9.906;2022-12-18T13:30:41;18.40;;;10.13;;
14892;SDS011;7538;53.626;9.906;2022-12-18T13:36:13;15.93;;;10.50;;
14892;SDS011;7538;53.626;9.906;2022-12-18T13:48:12;17.63;;;10.10;;
14892;SDS011;7538;53.626;9.906;2022-12-18T13:50:53;17.70;;;10.63;;
14892;SDS011;7538;53.626;9.906;2022-12-18T13:53:26;19.47;;;11.70;;
14892;SDS011;7538;53.626;9.906;2022-12-18T13:55:55;17.40;;;11.10;;
14892;SDS011;7538;53.626;9.906;2022-12-18T13:58:23;20.27;;;12.57;;
14892;SDS011;7538;53.626;9.906;2022-12-18T14:00:50;22.20;;;12.83;;
14892;SDS011;7538;53.626;9.906;2022-12-18T14:03:18;21.93;;;11.63;;
14892;SDS011;7538;53.626;9.906;2022-12-18T14:05:51;20.90;;;12.27;;
14892;SDS011;7538;53.626;9.906;2022-12-18T14:08:22;24.90;;;13.70;;
14892;SDS011;7538;53.626;9.906;2022-12-18T14:10:51;21.27;;;12.43;;
14892;SDS011;7538;53.626;9.906;2022-12-18T14:13:19;23.77;;;14.20;;
14892;SDS011;7538;53.626;9.906;2022-12-18T14:15:50;23.43;;;12.90;;
14892;SDS011;7538;53.626;9.906;2022-12-18T14:18:19;23.50;;;13.37;;
14892;SDS011;7538;53.626;9.906;2022-12-18T14:20:49;20.67;;;12.43;;
14892;SDS011;7538;53.626;9.906;2022-12-18T14:23:31;27.77;;;13.67;;
14892;SDS011;7538;53.626;9.906;2022-12-18T14:26:00;23.63;;;13.17;;
14892;SDS011;7538;53.626;9.906;2022-12-18T14:28:28;26.53;;;14.03;;
14892;SDS011;7538;53.626;9.906;2022-12-18T14:30:55;24.67;;;13.47;;
14892;SDS011;7538;53.626;9.906;2022-12-18T14:33:23;23.97;;;13.50;;
14892;SDS011;7538;53.626;9.906;2022-12-18T14:35:53;24.17;;;13.47;;
14892;SDS011;7538;53.626;9.906;2022-12-18T14:38:25;23.97;;;13.13;;
14892;SDS011;7538;53.626;9.906;2022-12-18T14:40:56;25.07;;;13.30;;
14892;SDS011;7538;53.626;9.906;2022-12-18T14:43:24;25.37;;;13.77;;
14892;SDS011;7538;53.626;9.906;2022-12-18T14:45:52;21.77;;;12.70;;
14892;SDS011;7538;53.626;9.906;2022-12-18T14:48:20;24.90;;;13.40;;
14892;SDS011;7538;53.626;9.906;2022-12-18T14:50:55;24.77;;;14.13;;
14892;SDS011;7538;53.626;9.906;2022-12-18T14:53:28;26.47;;;14.37;;
14892;SDS011;7538;53.626;9.906;2022-12-18T14:56:01;29.20;;;14.63;;
14892;SDS011;7538;53.626;9.906;2022-12-18T14:58:29;27.33;;;14.70;;
14892;SDS011;7538;53.626;9.906;2022-12-18T15:00:56;26.80;;;14.47;;
14892;SDS011;7538;53.626;9.906;2022-12-18T15:03:23;30.10;;;15.17;;
14892;SDS011;7538;53.626;9.906;2022-12-18T15:05:50;28.00;;;14.27;;
14892;SDS011;7538;53.626;9.906;2022-12-18T15:08:31;28.43;;;15.60;;
14892;SDS011;7538;53.626;9.906;2022-12-18T15:11:03;26.83;;;14.93;;
14892;SDS011;7538;53.626;9.906;2022-12-18T15:13:44;32.27;;;15.90;;
14892;SDS011;7538;53.626;9.906;2022-12-18T15:16:11;33.27;;;16.13;;
14892;SDS011;7538;53.626;9.906;2022-12-18T15:18:40;29.33;;;15.87;;
14892;SDS011;7538;53.626;9.906;2022-12-18T15:21:10;30.60;;;15.87;;
14892;SDS011;7538;53.626;9.906;2022-12-18T15:23:45;31.93;;;15.60;;